Upstream stations:
Downstream station:
SHEF ID: CDNT2 Canadian Rv nr Canadian, TX
STATION TYPE:
Regulating: Stage = 8.00, Flow = 5231
STAGE RIV-FLOW BAT-LOAD
ft cfs volt
Ccp-Rev Ccp-Rev Ccp-Rev
(US/Central)
05/17 00:00 1.18 37 12.41
05/17 01:00 1.12 30 12.41
05/17 02:00 1.18 37 12.33
05/17 03:00 1.18 37 12.33
05/17 04:00 1.19 38 12.33
05/17 05:00 1.17 36 12.33
05/17 06:00 1.18 37 12.33
05/17 07:00 1.18 37 12.25
05/17 08:00 1.18 37 12.25
05/17 09:00 1.18 37 12.33
05/17 10:00 1.19 38 12.41
05/17 11:00 1.17 36 12.65
05/17 12:00 1.19 38 12.89
05/17 13:00 1.18 37 13.05
05/17 14:00 1.18 37 13.13
05/17 15:00 1.18 37 13.13
05/17 16:00 1.18 37 13.05
05/17 17:00 1.17 36 12.81
05/17 18:00 1.17 36 12.65
05/17 19:00 1.16 34 12.57
05/17 20:00 1.15 33 12.49
05/17 21:00 1.15 33 12.41
05/17 22:00 1.15 33 12.41
05/17 23:00 ---- ---- ----